Time;durP1;ratioP1;P1;durP2;ratioP2;P2;SDS_P1;SDS_P2;PMS_P1;PMS_P2;Temp;Humidity;BMP_temperature;BMP_pressure;BME280_temperature;BME280_humidity;BME280_pressure;Samples;Min_cycle;Max_cycle;Signal;HPM_P1;HPM_P2
2022/07/17 00:01:07;;;;;;;7.13;4.50;;;615.30;2227.20;;;;;;5111488;28;20015;-76
2022/07/17 00:03:33;;;;;;;11.48;4.82;;;615.20;2252.80;;;;;;5123858;27;20024;-77
2022/07/17 00:05:59;;;;;;;9.55;5.03;;;615.20;2227.20;;;;;;5125014;27;20051;-75
2022/07/17 00:08:25;;;;;;;8.55;5.07;;;615.20;2227.20;;;;;;5133013;27;20460;-75
2022/07/17 00:10:51;;;;;;;8.40;4.40;;;615.20;2227.20;;;;;;5135423;27;20137;-75
2022/07/17 00:13:17;;;;;;;8.85;4.78;;;615.20;2227.20;;;;;;5135702;27;20035;-76
2022/07/17 00:15:43;;;;;;;7.65;4.80;;;615.20;2227.20;;;;;;5113957;27;20022;-75
2022/07/17 00:18:09;;;;;;;8.63;5.30;;;615.20;2201.60;;;;;;5133767;27;20027;-74
2022/07/17 00:20:35;;;;;;;7.65;4.90;;;615.20;2176.00;;;;;;5135858;27;20373;-75
2022/07/17 00:23:01;;;;;;;8.65;5.22;;;615.20;2176.00;;;;;;5133481;27;20019;-74
2022/07/17 00:25:27;;;;;;;6.78;4.72;;;615.20;2176.00;;;;;;5135832;27;20433;-75
2022/07/17 00:27:53;;;;;;;8.77;4.88;;;615.20;2176.00;;;;;;5135594;27;20437;-75
2022/07/17 00:30:19;;;;;;;12.55;4.80;;;615.20;2176.00;;;;;;5134304;27;20026;-75
2022/07/17 00:32:45;;;;;;;9.15;5.22;;;615.20;2176.00;;;;;;5135688;27;20101;-74
2022/07/17 00:35:12;;;;;;;7.07;5.10;;;615.10;2201.60;;;;;;5117284;27;20086;-75
2022/07/17 00:37:46;;;;;;;9.45;6.00;;;615.10;2201.60;;;;;;5116051;28;20035;-75
2022/07/17 00:40:14;;;;;;;8.93;5.80;;;615.10;2201.60;;;;;;5127668;27;20552;-76
2022/07/17 00:42:41;;;;;;;7.93;5.50;;;615.20;2201.60;;;;;;5130193;27;20031;-78
2022/07/17 00:45:09;;;;;;;8.23;5.55;;;615.20;2201.60;;;;;;5129288;27;20015;-75
2022/07/17 00:47:53;;;;;;;8.02;5.78;;;615.10;2201.60;;;;;;5135402;27;20015;-75
2022/07/17 00:50:21;;;;;;;10.02;6.00;;;615.10;2201.60;;;;;;5132470;27;20019;-76
2022/07/17 00:52:47;;;;;;;7.72;5.63;;;615.10;2227.20;;;;;;5126696;27;20061;-75
2022/07/17 00:55:13;;;;;;;14.10;5.65;;;615.10;2252.80;;;;;;5134764;27;20078;-75
2022/07/17 00:57:40;;;;;;;8.23;5.78;;;615.10;2252.80;;;;;;5134815;27;20031;-75
2022/07/17 01:00:10;;;;;;;12.27;6.35;;;615.10;2252.80;;;;;;5129398;27;20018;-74
2022/07/17 01:02:37;;;;;;;10.88;6.32;;;615.00;2278.40;;;;;;5134156;27;20519;-78
2022/07/17 01:05:04;;;;;;;10.38;6.15;;;615.10;2278.40;;;;;;5129651;27;20019;-75
2022/07/17 01:07:30;;;;;;;13.35;7.35;;;614.90;2304.00;;;;;;5129265;27;20103;-75
2022/07/17 01:09:56;;;;;;;8.52;5.78;;;614.80;2329.60;;;;;;5129052;27;20094;-75
2022/07/17 01:12:23;;;;;;;9.70;6.60;;;614.70;2329.60;;;;;;5129671;27;20027;-75
2022/07/17 01:14:50;;;;;;;10.65;6.70;;;614.60;2355.20;;;;;;5131952;27;20015;-76
2022/07/17 01:17:17;;;;;;;10.18;5.03;;;614.70;2329.60;;;;;;5133657;27;20031;-75
2022/07/17 01:19:42;;;;;;;7.43;5.18;;;614.70;2304.00;;;;;;5115437;28;20022;-76
2022/07/17 01:22:08;;;;;;;16.25;4.90;;;614.80;2252.80;;;;;;5115440;28;20035;-75
2022/07/17 01:24:38;;;;;;;10.00;5.38;;;614.80;2252.80;;;;;;5115525;28;20028;-75
2022/07/17 01:27:04;;;;;;;7.28;4.75;;;614.80;2227.20;;;;;;5115453;28;20028;-76
2022/07/17 01:29:29;;;;;;;10.10;5.05;;;614.80;2201.60;;;;;;5115263;28;20080;-75
2022/07/17 01:31:55;;;;;;;5.60;3.65;;;614.80;2201.60;;;;;;5115089;28;20067;-76
2022/07/17 01:34:21;;;;;;;11.18;5.60;;;614.80;2201.60;;;;;;5096999;28;20024;-76
2022/07/17 01:36:46;;;;;;;6.38;4.35;;;614.80;2176.00;;;;;;5115145;28;20088;-75
2022/07/17 01:39:12;;;;;;;11.30;4.43;;;614.70;2176.00;;;;;;5115215;28;20486;-76
2022/07/17 01:41:39;;;;;;;6.25;4.30;;;614.70;2176.00;;;;;;5096474;28;20362;-75
2022/07/17 01:44:07;;;;;;;7.13;4.22;;;614.70;2099.20;;;;;;5114887;28;20031;-76
2022/07/17 01:46:33;;;;;;;6.20;4.43;;;614.70;2099.20;;;;;;5114956;28;20016;-77
2022/07/17 01:49:00;;;;;;;7.22;4.00;;;614.70;2073.60;;;;;;5114976;28;20023;-76
2022/07/17 01:51:27;;;;;;;11.90;3.65;;;614.80;1996.80;;;;;;5114944;28;20038;-75
2022/07/17 01:53:53;;;;;;;5.88;3.60;;;614.70;1971.20;;;;;;5114726;28;20030;-74
2022/07/17 01:56:19;;;;;;;6.13;3.70;;;614.80;1945.60;;;;;;5114454;28;20130;-77
2022/07/17 01:58:45;;;;;;;6.53;3.67;;;614.80;1945.60;;;;;;5114477;28;20046;-76
2022/07/17 02:01:10;;;;;;;9.13;3.65;;;614.80;1920.00;;;;;;5096195;28;20050;-74
2022/07/17 02:03:36;;;;;;;5.47;3.92;;;614.80;1920.00;;;;;;5114551;28;20059;-75
2022/07/17 02:06:02;;;;;;;8.57;3.75;;;614.80;1920.00;;;;;;5114693;28;20073;-75
2022/07/17 02:08:27;;;;;;;12.73;4.50;;;614.80;1920.00;;;;;;5114552;28;20094;-75
2022/07/17 02:10:53;;;;;;;9.20;4.57;;;614.80;1920.00;;;;;;5096355;28;20024;-75
2022/07/17 02:13:19;;;;;;;8.15;4.38;;;614.70;1945.60;;;;;;5114366;28;20028;-75
2022/07/17 02:15:45;;;;;;;9.30;3.50;;;614.70;1945.60;;;;;;5114536;28;20361;-77
2022/07/17 02:18:10;;;;;;;6.22;4.13;;;614.70;1945.60;;;;;;5114391;28;20035;-78
2022/07/17 02:20:36;;;;;;;8.75;3.88;;;614.70;1920.00;;;;;;5114377;28;20028;-75
2022/07/17 02:23:02;;;;;;;9.55;3.90;;;614.70;1920.00;;;;;;5114124;28;20035;-77
2022/07/17 02:25:27;;;;;;;9.98;4.38;;;614.70;1920.00;;;;;;5113572;28;20076;-76
2022/07/17 02:27:53;;;;;;;6.50;4.07;;;614.70;1920.00;;;;;;5113977;28;20028;-76
2022/07/17 02:30:19;;;;;;;7.07;4.00;;;614.60;1920.00;;;;;;5114097;28;20024;-76
2022/07/17 02:32:46;;;;;;;8.35;3.42;;;614.60;1920.00;;;;;;5114342;28;20073;-76
2022/07/17 02:35:13;;;;;;;5.75;4.13;;;614.60;1920.00;;;;;;5113739;28;20032;-76
2022/07/17 02:37:41;;;;;;;5.15;3.17;;;614.50;1894.40;;;;;;5113697;28;20396;-76
2022/07/17 02:40:08;;;;;;;6.78;3.72;;;614.50;1894.40;;;;;;5113935;28;20145;-78
2022/07/17 02:42:34;;;;;;;12.05;4.07;;;614.60;1894.40;;;;;;5113630;28;20028;-77
2022/07/17 02:44:59;;;;;;;7.82;3.80;;;614.50;1868.80;;;;;;5113546;28;20028;-77
2022/07/17 02:47:31;;;;;;;6.55;3.40;;;614.50;1843.20;;;;;;5113549;28;20027;-77
2022/07/17 02:49:58;;;;;;;4.97;3.17;;;614.50;1817.60;;;;;;5095798;28;20024;-78
2022/07/17 02:52:24;;;;;;;9.13;3.50;;;614.50;1792.00;;;;;;5113275;28;20024;-77
2022/07/17 02:54:50;;;;;;;7.63;3.17;;;614.50;1766.40;;;;;;5113836;28;20039;-77
2022/07/17 02:57:18;;;;;;;5.35;3.13;;;614.50;1766.40;;;;;;5095289;28;20067;-78
2022/07/17 02:59:44;;;;;;;7.97;3.13;;;614.50;1740.80;;;;;;5095555;28;20114;-77
2022/07/17 03:02:09;;;;;;;11.68;3.03;;;614.50;1740.80;;;;;;5113659;28;20519;-77
2022/07/17 03:04:35;;;;;;;10.38;2.38;;;614.60;1689.60;;;;;;5113696;28;20027;-76
2022/07/17 03:07:01;;;;;;;5.43;2.60;;;614.50;1689.60;;;;;;5113818;28;20496;-75
2022/07/17 03:09:27;;;;;;;8.73;3.13;;;614.40;1689.60;;;;;;5113741;28;20107;-76
2022/07/17 03:11:53;;;;;;;6.50;2.83;;;614.40;1689.60;;;;;;5113429;28;20023;-78
2022/07/17 03:14:19;;;;;;;5.93;2.80;;;614.40;1689.60;;;;;;5113601;28;20066;-78
2022/07/17 03:16:44;;;;;;;4.35;2.78;;;614.40;1664.00;;;;;;5113614;28;20066;-76
2022/07/17 03:19:10;;;;;;;6.78;2.75;;;589.70;1664.00;;;;;;5113565;28;20388;-75
2022/07/17 03:21:36;;;;;;;6.28;2.42;;;589.70;1664.00;;;;;;5095152;28;20030;-76
2022/07/17 03:24:01;;;;;;;6.60;2.83;;;589.70;1664.00;;;;;;5113485;28;20022;-76
2022/07/17 03:26:27;;;;;;;7.18;3.08;;;589.70;1638.40;;;;;;5113713;28;20469;-77
2022/07/17 03:28:53;;;;;;;7.25;3.08;;;589.70;1638.40;;;;;;5113254;28;20024;-76
2022/07/17 03:31:19;;;;;;;13.60;2.85;;;589.60;1638.40;;;;;;5103803;28;20103;-75
2022/07/17 03:33:44;;;;;;;7.32;2.55;;;589.70;1638.40;;;;;;5108755;28;20115;-75
2022/07/17 03:36:10;;;;;;;6.05;2.35;;;589.70;1612.80;;;;;;5113464;28;20024;-75
2022/07/17 03:38:36;;;;;;;4.13;2.50;;;589.70;1612.80;;;;;;5113302;28;20404;-76
2022/07/17 03:41:01;;;;;;;6.32;2.65;;;589.70;1587.20;;;;;;5107696;28;20018;-76
2022/07/17 03:43:27;;;;;;;7.70;2.58;;;589.60;1587.20;;;;;;5104691;28;20468;-78
2022/07/17 03:45:53;;;;;;;9.65;2.35;;;589.70;1587.20;;;;;;5113113;28;20012;-76
2022/07/17 03:48:19;;;;;;;6.57;2.92;;;589.60;1587.20;;;;;;5113205;28;20452;-76
2022/07/17 03:50:44;;;;;;;6.88;3.15;;;589.60;1587.20;;;;;;5098852;28;20020;-77
2022/07/17 03:53:10;;;;;;;4.47;2.20;;;589.60;1587.20;;;;;;5113377;28;20090;-76
2022/07/17 03:55:36;;;;;;;4.97;2.55;;;589.70;1587.20;;;;;;5081031;28;20066;-77
2022/07/17 03:58:02;;;;;;;7.82;2.90;;;589.70;1587.20;;;;;;5126976;28;20142;-77
2022/07/17 04:00:27;;;;;;;4.80;2.20;;;589.70;1587.20;;;;;;5085184;28;20028;-76
2022/07/17 04:02:53;;;;;;;6.35;2.88;;;589.70;1561.60;;;;;;5108411;28;20020;-77
2022/07/17 04:05:20;;;;;;;5.43;2.95;;;589.70;1561.60;;;;;;5116841;28;20095;-76
2022/07/17 04:07:46;;;;;;;10.10;2.28;;;589.70;1561.60;;;;;;5084908;28;20036;-76
2022/07/17 04:10:14;;;;;;;3.85;2.38;;;589.70;1587.20;;;;;;5097688;28;20484;-76
2022/07/17 04:12:40;;;;;;;4.78;2.85;;;589.60;1561.60;;;;;;5098528;28;20027;-77
2022/07/17 04:15:07;;;;;;;4.00;2.28;;;589.70;1587.20;;;;;;5084090;28;20035;-77
2022/07/17 04:17:33;;;;;;;5.18;2.80;;;589.70;1561.60;;;;;;5116631;28;20120;-77
2022/07/17 04:19:59;;;;;;;5.00;2.25;;;589.70;1561.60;;;;;;5116540;28;20495;-77
2022/07/17 04:22:25;;;;;;;3.97;2.42;;;589.70;1561.60;;;;;;5116636;28;20027;-77
2022/07/17 04:24:51;;;;;;;4.63;2.33;;;589.70;1561.60;;;;;;5116444;28;20031;-77
2022/07/17 04:27:17;;;;;;;4.65;2.28;;;589.70;1561.60;;;;;;5098353;28;20028;-76
2022/07/17 04:29:43;;;;;;;3.65;2.17;;;589.70;1587.20;;;;;;5104007;28;20017;-76
2022/07/17 04:32:09;;;;;;;6.78;2.67;;;589.70;1561.60;;;;;;5096358;28;20027;-75
2022/07/17 04:34:35;;;;;;;4.38;1.90;;;589.70;1561.60;;;;;;5116567;28;20031;-76
2022/07/17 04:37:02;;;;;;;4.70;2.30;;;589.70;1536.00;;;;;;5116153;28;20031;-77
2022/07/17 04:39:29;;;;;;;5.45;2.35;;;589.70;1536.00;;;;;;5107501;28;20457;-80
2022/07/17 04:41:55;;;;;;;4.97;2.45;;;589.70;1536.00;;;;;;5110758;28;20026;-78
2022/07/17 04:44:21;;;;;;;6.75;2.50;;;589.70;1536.00;;;;;;5097989;28;20016;-78
2022/07/17 04:46:46;;;;;;;6.38;2.70;;;589.70;1510.40;;;;;;5097718;28;20046;-77
2022/07/17 04:49:13;;;;;;;7.80;2.97;;;589.70;1536.00;;;;;;5083591;28;20039;-79
2022/07/17 04:51:39;;;;;;;7.75;2.58;;;589.70;1536.00;;;;;;5116446;28;20043;-81
2022/07/17 04:54:04;;;;;;;5.53;2.40;;;589.70;1536.00;;;;;;5079778;28;20032;-79
2022/07/17 04:56:30;;;;;;;5.82;2.25;;;589.70;1536.00;;;;;;5104652;28;20040;-79
2022/07/17 04:58:56;;;;;;;5.55;2.03;;;589.70;1536.00;;;;;;5116125;28;20503;-79
2022/07/17 05:01:22;;;;;;;4.10;2.40;;;589.70;1536.00;;;;;;5083749;28;20023;-80
2022/07/17 05:03:47;;;;;;;4.80;2.00;;;589.70;1536.00;;;;;;5116058;28;20106;-82
2022/07/17 05:06:13;;;;;;;6.60;2.60;;;589.60;1536.00;;;;;;5114207;28;20065;-78
2022/07/17 05:08:39;;;;;;;4.40;2.42;;;589.70;1536.00;;;;;;5115373;28;20019;-82
2022/07/17 05:11:04;;;;;;;4.57;2.10;;;589.60;1536.00;;;;;;5097689;28;20028;-77
2022/07/17 05:13:30;;;;;;;6.10;2.80;;;589.70;1536.00;;;;;;5092795;28;20028;-80
2022/07/17 05:15:56;;;;;;;8.52;2.53;;;589.70;1536.00;;;;;;5114146;28;20020;-81
2022/07/17 05:18:22;;;;;;;5.47;2.35;;;589.70;1536.00;;;;;;5097704;28;20138;-82
2022/07/17 05:20:47;;;;;;;7.05;2.55;;;589.70;1536.00;;;;;;5115604;28;20020;-79
2022/07/17 05:23:13;;;;;;;4.88;2.10;;;589.70;1536.00;;;;;;5115878;28;20038;-83
2022/07/17 05:25:39;;;;;;;3.08;1.95;;;589.70;1536.00;;;;;;5083333;28;20107;-80
2022/07/17 05:28:05;;;;;;;5.68;2.25;;;614.40;1536.00;;;;;;5090438;28;20036;-77
2022/07/17 05:30:30;;;;;;;4.10;2.10;;;614.40;1536.00;;;;;;5108105;28;20095;-77
2022/07/17 05:32:57;;;;;;;4.78;2.15;;;614.60;1536.00;;;;;;5115386;28;20123;-77
2022/07/17 05:35:22;;;;;;;3.97;1.92;;;614.50;1536.00;;;;;;5115152;28;20496;-79
2022/07/17 05:37:48;;;;;;;5.72;2.10;;;614.50;1510.40;;;;;;5114395;28;20035;-77
2022/07/17 05:40:14;;;;;;;5.80;2.00;;;614.50;1510.40;;;;;;5096402;28;20103;-78
2022/07/17 05:42:40;;;;;;;5.65;2.40;;;614.60;1510.40;;;;;;5095558;28;20101;-78
2022/07/17 05:45:06;;;;;;;3.50;1.75;;;614.60;1510.40;;;;;;5114829;28;20024;-77
2022/07/17 05:47:32;;;;;;;3.38;2.08;;;614.60;1510.40;;;;;;5114836;28;20024;-79
2022/07/17 05:49:58;;;;;;;8.27;2.00;;;614.60;1510.40;;;;;;5096766;28;20023;-78
2022/07/17 05:52:23;;;;;;;6.43;2.08;;;614.60;1510.40;;;;;;5083197;28;20023;-78
2022/07/17 05:54:49;;;;;;;3.78;1.80;;;614.50;1510.40;;;;;;5090145;28;20038;-80
2022/07/17 05:57:15;;;;;;;8.27;2.30;;;614.70;1510.40;;;;;;5098606;27;20089;-77
2022/07/17 05:59:41;;;;;;;4.75;1.73;;;614.70;1510.40;;;;;;5085026;28;20042;-78
2022/07/17 06:02:07;;;;;;;3.83;1.88;;;614.80;1510.40;;;;;;5096280;28;20019;-78
2022/07/17 06:04:33;;;;;;;7.85;1.90;;;614.90;1484.80;;;;;;5114313;28;20354;-77
2022/07/17 06:06:58;;;;;;;2.72;1.80;;;615.00;1484.80;;;;;;5089263;28;20016;-80
2022/07/17 06:09:24;;;;;;;3.15;1.80;;;615.10;1484.80;;;;;;5107625;28;20023;-79
2022/07/17 06:11:50;;;;;;;4.43;1.85;;;615.10;1484.80;;;;;;5109541;28;20008;-81
2022/07/17 06:14:16;;;;;;;2.45;1.70;;;615.20;1484.80;;;;;;5104871;28;20481;-79
2022/07/17 06:16:42;;;;;;;4.38;1.90;;;615.30;1459.20;;;;;;5111314;28;20024;-79
2022/07/17 06:19:07;;;;;;;3.40;1.92;;;640.00;1459.20;;;;;;5102973;28;20038;-76
2022/07/17 06:21:33;;;;;;;4.97;2.25;;;640.20;1433.60;;;;;;5113801;28;20024;-78
2022/07/17 06:23:59;;;;;;;4.82;2.28;;;640.10;1408.00;;;;;;5095942;28;20471;-77
2022/07/17 06:26:24;;;;;;;4.43;1.92;;;640.10;1408.00;;;;;;5113226;28;20027;-76
2022/07/17 06:28:51;;;;;;;6.03;2.13;;;640.10;1408.00;;;;;;5113271;28;20012;-78
2022/07/17 06:31:17;;;;;;;4.03;2.08;;;640.30;1408.00;;;;;;5114080;28;20122;-78
2022/07/17 06:33:43;;;;;;;3.38;2.03;;;640.40;1408.00;;;;;;5084683;27;20019;-78
2022/07/17 06:36:08;;;;;;;5.47;2.30;;;640.40;1408.00;;;;;;5107114;28;20069;-80
2022/07/17 06:38:34;;;;;;;4.85;2.13;;;640.50;1382.40;;;;;;5115050;27;20038;-78
2022/07/17 06:41:01;;;;;;;6.85;1.85;;;640.60;1356.80;;;;;;5109438;28;20106;-81
2022/07/17 06:43:27;;;;;;;4.45;1.95;;;640.70;1356.80;;;;;;5096183;28;20043;-83
2022/07/17 06:45:54;;;;;;;5.47;1.90;;;640.80;1382.40;;;;;;5114142;28;20024;-79
2022/07/17 06:48:23;;;;;;;2.60;1.65;;;665.60;1356.80;;;;;;5095873;28;20028;-77
2022/07/17 06:50:49;;;;;;;4.38;1.90;;;665.60;1356.80;;;;;;5113851;28;20072;-78
2022/07/17 06:53:15;;;;;;;8.27;2.08;;;665.60;1305.60;;;;;;5113759;28;20089;-78
2022/07/17 06:55:41;;;;;;;4.75;1.92;;;665.60;1356.80;;;;;;5080908;28;20430;-79
2022/07/17 06:58:07;;;;;;;3.45;1.90;;;665.80;1331.20;;;;;;5109722;28;20119;-79
2022/07/17 07:00:33;;;;;;;5.00;1.80;;;665.90;1305.60;;;;;;5095221;28;20020;-79
2022/07/17 07:02:58;;;;;;;8.63;2.47;;;666.00;1305.60;;;;;;5094981;28;20165;-79
2022/07/17 07:05:24;;;;;;;6.80;2.13;;;666.20;1331.20;;;;;;5113877;28;20494;-79
2022/07/17 07:07:50;;;;;;;3.85;2.08;;;666.00;1305.60;;;;;;5113887;28;20034;-78
2022/07/17 07:10:16;;;;;;;3.38;2.35;;;666.20;1280.00;;;;;;5089529;28;20020;-79
2022/07/17 07:12:41;;;;;;;11.45;2.63;;;666.10;1280.00;;;;;;5105152;28;20099;-80
2022/07/17 07:15:08;;;;;;;3.70;2.00;;;666.10;1305.60;;;;;;5081092;28;20051;-79
2022/07/17 07:17:35;;;;;;;4.15;1.92;;;665.90;1305.60;;;;;;5113437;28;20475;-78
2022/07/17 07:20:04;;;;;;;4.45;2.30;;;665.90;1280.00;;;;;;5081175;28;20026;-78
2022/07/17 07:22:31;;;;;;;3.25;2.05;;;665.90;1280.00;;;;;;5094689;28;20059;-79
2022/07/17 07:24:57;;;;;;;3.95;2.58;;;665.90;1280.00;;;;;;5112956;28;20042;-78
2022/07/17 07:27:23;;;;;;;4.80;2.05;;;665.90;1305.60;;;;;;5113260;28;20031;-79
2022/07/17 07:29:49;;;;;;;4.90;2.40;;;665.90;1305.60;;;;;;5082098;28;20107;-80
2022/07/17 07:32:15;;;;;;;4.55;2.55;;;666.10;1305.60;;;;;;5112724;28;20469;-80
2022/07/17 07:34:41;;;;;;;6.00;2.20;;;666.40;1254.40;;;;;;5102181;28;20051;-79
2022/07/17 07:37:07;;;;;;;4.38;2.13;;;666.50;1254.40;;;;;;5092067;28;20653;-79
2022/07/17 07:39:33;;;;;;;4.97;1.80;;;691.20;1228.80;;;;;;5098009;28;20492;-79
2022/07/17 07:41:59;;;;;;;5.80;1.90;;;691.30;1228.80;;;;;;5084932;28;20020;-79
2022/07/17 07:44:25;;;;;;;3.60;2.10;;;691.40;1254.40;;;;;;5099329;28;20026;-79
2022/07/17 07:46:51;;;;;;;3.83;2.22;;;691.50;1280.00;;;;;;5117558;28;20469;-80
2022/07/17 07:49:17;;;;;;;5.43;1.80;;;691.50;1228.80;;;;;;5117111;28;20058;-79
2022/07/17 07:51:43;;;;;;;5.72;2.35;;;691.60;1203.20;;;;;;5115675;28;20077;-79
2022/07/17 07:54:08;;;;;;;4.65;1.98;;;691.60;1177.60;;;;;;5116893;28;20487;-79
2022/07/17 07:56:35;;;;;;;4.95;1.95;;;691.60;1177.60;;;;;;5122529;27;20492;-79
2022/07/17 07:59:02;;;;;;;5.22;1.83;;;691.70;1177.60;;;;;;5125889;27;20031;-79
2022/07/17 08:01:27;;;;;;;3.28;1.73;;;691.60;1152.00;;;;;;5098742;28;20022;-79
2022/07/17 08:03:53;;;;;;;7.30;1.90;;;691.70;1152.00;;;;;;5117151;28;20023;-79
2022/07/17 08:06:20;;;;;;;2.95;1.90;;;691.70;1177.60;;;;;;5084295;28;20071;-79
2022/07/17 08:08:46;;;;;;;3.78;1.88;;;691.50;1152.00;;;;;;5115790;28;20034;-79
2022/07/17 08:11:12;;;;;;;4.25;1.80;;;691.70;1152.00;;;;;;5115512;28;20393;-79
2022/07/17 08:13:38;;;;;;;7.97;2.15;;;691.80;1126.40;;;;;;5114987;28;20084;-79
2022/07/17 08:16:04;;;;;;;3.40;1.77;;;691.80;1126.40;;;;;;5086617;28;20463;-79
2022/07/17 08:18:30;;;;;;;3.28;1.63;;;691.70;1152.00;;;;;;5109506;28;20089;-80
2022/07/17 08:20:55;;;;;;;3.42;2.05;;;691.70;1126.40;;;;;;5106774;28;20023;-80
2022/07/17 08:23:21;;;;;;;2.70;1.42;;;691.80;1126.40;;;;;;5099981;28;20030;-80
2022/07/17 08:25:47;;;;;;;5.65;2.25;;;691.80;1126.40;;;;;;5086156;28;20023;-80
2022/07/17 08:28:14;;;;;;;3.42;2.05;;;691.80;1126.40;;;;;;5131371;27;20590;-80
2022/07/17 08:30:40;;;;;;;5.50;1.98;;;691.80;1126.40;;;;;;5097623;28;20058;-78
2022/07/17 08:33:08;;;;;;;6.65;2.13;;;691.90;1126.40;;;;;;5108291;28;20059;-79
2022/07/17 08:35:35;;;;;;;10.68;5.32;;;692.00;1075.20;;;;;;5116616;28;20049;-80
2022/07/17 08:38:02;;;;;;;4.70;1.98;;;692.00;1075.20;;;;;;5116548;28;20027;-79
2022/07/17 08:40:31;;;;;;;5.57;2.22;;;692.10;1075.20;;;;;;5082787;28;20089;-79
2022/07/17 08:42:58;;;;;;;3.60;1.70;;;716.80;1100.80;;;;;;5116582;28;20041;-81
2022/07/17 08:45:24;;;;;;;4.22;1.45;;;716.80;1075.20;;;;;;5083402;28;20032;-78
2022/07/17 08:47:52;;;;;;;1.70;1.23;;;716.80;1075.20;;;;;;5090269;28;20016;-78
2022/07/17 08:50:26;;;;;;;3.50;1.75;;;716.90;1075.20;;;;;;5108745;28;20055;-79
2022/07/17 08:52:52;;;;;;;4.43;1.85;;;716.90;1049.60;;;;;;5116185;28;20023;-80
2022/07/17 08:55:18;;;;;;;3.53;2.00;;;716.90;1049.60;;;;;;5097857;28;20036;-80
2022/07/17 08:57:45;;;;;;;3.47;2.13;;;717.00;1075.20;;;;;;5108085;27;20035;-78
2022/07/17 09:00:15;;;;;;;3.97;1.70;;;717.10;1075.20;;;;;;5115090;28;20043;-81
2022/07/17 09:03:02;;;;;;;3.55;1.75;;;717.20;1075.20;;;;;;5096987;28;20028;-81
2022/07/17 09:05:31;;;;;;;2.55;1.65;;;717.20;1075.20;;;;;;5084967;28;20069;-79
2022/07/17 09:07:58;;;;;;;11.80;1.67;;;717.30;1075.20;;;;;;5097599;28;20107;-79
2022/07/17 09:10:37;;;;;;;4.28;1.30;;;717.20;1049.60;;;;;;5097400;28;20043;-79
2022/07/17 09:13:15;;;;;;;2.85;1.75;;;717.20;998.40;;;;;;5106179;28;20030;-79
2022/07/17 09:15:40;;;;;;;5.40;2.55;;;717.30;998.40;;;;;;5082163;28;20027;-79
2022/07/17 09:18:06;;;;;;;3.70;1.50;;;717.30;1024.00;;;;;;5115597;28;20040;-79
2022/07/17 09:20:32;;;;;;;6.32;1.83;;;717.30;1024.00;;;;;;5093485;28;20109;-79
2022/07/17 09:23:00;;;;;;;4.22;2.13;;;717.40;1024.00;;;;;;5086056;28;20039;-79
2022/07/17 09:25:41;;;;;;;3.53;1.75;;;717.30;998.40;;;;;;5115212;28;20024;-79
2022/07/17 09:28:09;;;;;;;4.57;2.00;;;717.30;1024.00;;;;;;5096826;28;20109;-78
2022/07/17 09:30:37;;;;;;;3.03;1.42;;;717.50;1024.00;;;;;;5115233;28;20019;-78
2022/07/17 09:33:07;;;;;;;4.68;2.15;;;717.50;998.40;;;;;;5097052;28;20045;-82
2022/07/17 09:35:33;;;;;;;5.45;1.92;;;717.60;972.80;;;;;;5084152;27;20024;-80
2022/07/17 09:37:58;;;;;;;1.92;1.25;;;742.40;1049.60;;;;;;5109319;28;20039;-78
2022/07/17 09:43:08;;;;;;;3.60;1.55;;;742.50;998.40;;;;;;5115327;28;20030;-78
2022/07/17 09:45:35;;;;;;;2.53;1.40;;;742.60;1024.00;;;;;;5082791;28;20020;-79
2022/07/17 09:48:02;;;;;;;3.50;1.90;;;742.90;998.40;;;;;;5082375;28;20058;-78
2022/07/17 09:50:28;;;;;;;2.92;1.40;;;742.90;998.40;;;;;;5115244;28;20019;-80
2022/07/17 09:52:57;;;;;;;2.45;1.83;;;742.90;972.80;;;;;;5115051;28;20023;-80
2022/07/17 09:55:32;;;;;;;2.50;1.75;;;743.00;972.80;;;;;;5085820;28;20035;-79
2022/07/17 09:58:01;;;;;;;5.60;1.95;;;743.00;972.80;;;;;;5112652;28;20092;-79
2022/07/17 10:00:27;;;;;;;4.57;1.85;;;743.10;972.80;;;;;;5114648;28;20035;-79
2022/07/17 10:02:53;;;;;;;3.85;1.90;;;743.30;972.80;;;;;;5095774;28;20039;-78
2022/07/17 10:05:19;;;;;;;4.10;1.80;;;743.30;972.80;;;;;;5088388;28;20035;-78
2022/07/17 10:07:48;;;;;;;4.30;1.83;;;768.00;972.80;;;;;;5107890;28;20024;-78
2022/07/17 10:10:15;;;;;;;4.38;2.30;;;768.10;972.80;;;;;;5114509;28;20102;-76
2022/07/17 10:12:47;;;;;;;4.03;2.20;;;768.20;972.80;;;;;;5111542;27;20110;-79
2022/07/17 10:15:15;;;;;;;3.10;1.90;;;768.40;947.20;;;;;;5104386;27;20022;-80
2022/07/17 10:17:40;;;;;;;2.45;1.58;;;768.40;947.20;;;;;;5101093;28;20477;-78
2022/07/17 10:20:07;;;;;;;4.95;2.08;;;768.40;947.20;;;;;;5101385;28;20030;-82
2022/07/17 10:22:44;;;;;;;4.00;1.70;;;768.70;947.20;;;;;;5095930;28;20046;-78
2022/07/17 10:25:15;;;;;;;4.20;1.98;;;768.80;921.60;;;;;;5102371;28;20028;-78
2022/07/17 10:28:07;;;;;;;4.93;2.10;;;793.70;947.20;;;;;;5110741;27;20035;-78
2022/07/17 10:30:33;;;;;;;3.65;1.48;;;793.90;921.60;;;;;;5091196;28;20427;-79
2022/07/17 10:33:04;;;;;;;4.80;1.50;;;793.90;921.60;;;;;;5111973;27;20030;-77
2022/07/17 10:35:48;;;;;;;3.83;2.20;;;794.20;947.20;;;;;;5094730;28;20478;-82
2022/07/17 10:38:14;;;;;;;2.72;1.60;;;794.20;947.20;;;;;;5095996;28;20126;-80
2022/07/17 10:40:41;;;;;;;3.03;1.70;;;794.10;921.60;;;;;;5088751;28;20047;-77
2022/07/17 10:43:09;;;;;;;3.08;1.50;;;794.20;921.60;;;;;;5114003;28;20023;-79
2022/07/17 10:45:38;;;;;;;5.75;1.55;;;794.20;870.40;;;;;;5095519;28;20031;-79
2022/07/17 10:48:14;;;;;;;3.58;1.48;;;794.20;844.80;;;;;;5080731;28;20030;-78
2022/07/17 10:50:51;;;;;;;2.72;1.60;;;794.20;844.80;;;;;;5095294;28;20076;-81
2022/07/17 10:53:18;;;;;;;3.08;1.45;;;794.20;844.80;;;;;;5081814;28;20122;-80
2022/07/17 10:55:47;;;;;;;4.68;1.70;;;794.30;870.40;;;;;;5124892;27;20560;-80
2022/07/17 10:58:22;;;;;;;3.08;1.80;;;794.30;870.40;;;;;;5107107;28;20047;-85
2022/07/17 11:01:14;;;;;;;3.28;1.30;;;794.10;870.40;;;;;;5092219;28;20485;-82
2022/07/17 11:03:43;;;;;;;4.93;1.88;;;794.10;844.80;;;;;;5112052;28;20543;-84
2022/07/17 11:06:11;;;;;;;4.47;1.40;;;794.20;870.40;;;;;;5110700;28;20012;-81
2022/07/17 11:08:53;;;;;;;2.30;1.52;;;794.20;844.80;;;;;;5113087;28;20020;-83
2022/07/17 11:11:22;;;;;;;2.58;1.70;;;794.50;844.80;;;;;;5093632;28;20028;-83
2022/07/17 11:13:48;;;;;;;2.50;1.60;;;819.40;844.80;;;;;;5111785;28;20019;-79
2022/07/17 11:16:28;;;;;;;3.83;1.70;;;819.30;844.80;;;;;;5112081;28;20036;-81
2022/07/17 11:18:55;;;;;;;4.18;1.73;;;819.20;844.80;;;;;;5110276;28;20054;-77
2022/07/17 11:21:21;;;;;;;2.70;1.45;;;819.30;844.80;;;;;;5093973;28;20088;-77
2022/07/17 11:23:53;;;;;;;4.30;1.75;;;819.30;844.80;;;;;;5112111;28;20564;-81
2022/07/17 11:26:20;;;;;;;5.88;1.85;;;819.30;844.80;;;;;;5112460;28;20065;-78
2022/07/17 11:28:47;;;;;;;2.92;1.40;;;819.60;844.80;;;;;;5112243;28;20166;-77
2022/07/17 11:31:16;;;;;;;2.78;1.75;;;819.70;844.80;;;;;;5093994;28;20477;-83
2022/07/17 11:34:00;;;;;;;1.92;1.45;;;819.70;844.80;;;;;;5112425;28;20030;-78
2022/07/17 11:36:37;;;;;;;4.97;1.75;;;819.40;819.20;;;;;;5093651;28;20481;-79
2022/07/17 11:39:10;;;;;;;4.53;1.30;;;819.40;793.60;;;;;;5112328;28;20426;-76
2022/07/17 11:41:38;;;;;;;5.00;1.30;;;819.60;793.60;;;;;;5092027;28;20122;-80
2022/07/17 11:44:06;;;;;;;2.97;1.40;;;819.60;793.60;;;;;;5093879;28;20022;-79
2022/07/17 11:46:33;;;;;;;2.40;1.40;;;819.50;793.60;;;;;;5112135;28;20073;-79
2022/07/17 11:48:59;;;;;;;2.42;1.33;;;819.80;793.60;;;;;;5112267;28;20047;-84
2022/07/17 11:51:45;;;;;;;1.33;1.13;;;819.80;793.60;;;;;;5112130;28;20158;-79
2022/07/17 11:54:13;;;;;;;2.85;1.70;;;819.80;768.00;;;;;;5090608;28;20114;-80
2022/07/17 11:56:40;;;;;;;5.07;1.40;;;;;;;;;;5111794;28;20051;-79
2022/07/17 11:59:07;;;;;;;2.33;1.35;;;820.00;793.60;;;;;;5092926;28;20504;-80
2022/07/17 12:01:44;;;;;;;2.40;1.60;;;820.10;793.60;;;;;;5093374;28;20020;-79
2022/07/17 12:04:13;;;;;;;2.03;1.20;;;820.00;793.60;;;;;;5110733;28;20011;-80
2022/07/17 12:06:39;;;;;;;4.65;1.50;;;819.90;768.00;;;;;;5110156;28;20023;-80
2022/07/17 12:09:06;;;;;;;4.95;1.67;;;819.90;768.00;;;;;;5092692;28;20427;-78
2022/07/17 12:11:32;;;;;;;2.10;1.42;;;819.90;793.60;;;;;;5111505;28;20015;-79
2022/07/17 12:14:08;;;;;;;2.38;1.40;;;844.90;819.20;;;;;;5093406;28;20115;-80
2022/07/17 12:16:36;;;;;;;3.75;1.50;;;820.10;742.40;;;;;;5111604;28;20029;-79
2022/07/17 12:19:08;;;;;;;1.67;1.33;;;844.80;768.00;;;;;;5111086;28;20039;-78
2022/07/17 12:22:02;;;;;;;2.80;1.70;;;844.80;742.40;;;;;;5111727;28;20461;-80